Time;durP1;ratioP1;P1;durP2;ratioP2;P2;SDS_P1;SDS_P2;PMS_P1;PMS_P2;Temp;Humidity;BMP_temperature;BMP_pressure;BME280_temperature;BME280_humidity;BME280_pressure;Samples;Min_cycle;Max_cycle;Signal;HPM_P1;HPM_P2
2021/06/04 00:00:27;;;;;;;20.90;14.82;;;17.60;97.50;;;;;;4968767;28;20451;-81
2021/06/04 00:02:56;;;;;;;21.67;15.32;;;17.60;97.50;;;;;;4954650;28;20032;-81
2021/06/04 00:05:26;;;;;;;20.45;13.57;;;17.60;97.50;;;;;;4924551;28;20114;-81
2021/06/04 00:07:52;;;;;;;13.43;11.88;;;17.50;97.50;;;;;;4941816;28;20067;-81
2021/06/04 00:10:26;;;;;;;19.33;17.20;;;17.50;97.40;;;;;;4916178;29;20028;-81
2021/06/04 00:12:51;;;;;;;28.00;17.88;;;17.50;97.50;;;;;;4945189;28;20035;-81
2021/06/04 00:15:21;;;;;;;23.67;16.55;;;17.50;97.50;;;;;;4947441;28;20043;-81
2021/06/04 00:17:47;;;;;;;16.70;13.70;;;17.50;97.70;;;;;;4951380;28;20045;-81
2021/06/04 00:20:27;;;;;;;14.90;13.57;;;17.50;97.90;;;;;;4980387;28;20062;-81
2021/06/04 00:22:53;;;;;;;15.98;13.70;;;17.60;97.50;;;;;;4947788;28;20043;-81
2021/06/04 00:25:20;;;;;;;20.60;18.13;;;17.50;97.30;;;;;;4933435;29;20557;-81
2021/06/04 00:27:47;;;;;;;14.30;12.80;;;17.50;97.30;;;;;;4947588;28;20437;-81
2021/06/04 00:30:14;;;;;;;15.20;13.73;;;17.50;97.20;;;;;;4933612;28;20074;-81
2021/06/04 00:32:40;;;;;;;22.65;19.70;;;17.50;97.20;;;;;;4935662;28;20051;-81
2021/06/04 00:35:07;;;;;;;29.15;21.75;;;17.50;97.20;;;;;;4934816;28;20154;-81
2021/06/04 00:37:33;;;;;;;35.88;27.98;;;17.50;97.30;;;;;;4939367;28;20114;-81
2021/06/04 00:39:59;;;;;;;24.20;21.83;;;17.40;97.40;;;;;;4934648;28;20118;-81
2021/06/04 00:42:29;;;;;;;24.20;21.08;;;17.50;97.50;;;;;;4934419;28;20039;-81
2021/06/04 00:44:57;;;;;;;30.85;26.42;;;17.50;97.50;;;;;;4935081;28;20047;-81
2021/06/04 00:47:24;;;;;;;25.98;23.38;;;17.50;97.50;;;;;;4941984;28;20387;-81
2021/06/04 00:49:49;;;;;;;26.38;23.38;;;17.50;97.50;;;;;;4940282;28;20037;-81
2021/06/04 00:52:24;;;;;;;36.50;30.55;;;17.50;97.50;;;;;;4923110;29;20044;-81
2021/06/04 00:54:51;;;;;;;29.60;25.70;;;17.50;97.50;;;;;;4942435;28;20039;-81
2021/06/04 00:57:18;;;;;;;23.45;20.85;;;17.50;97.50;;;;;;4975031;28;20031;-81
2021/06/04 00:59:45;;;;;;;29.02;22.05;;;17.50;97.40;;;;;;4956796;28;20046;-81
2021/06/04 01:02:18;;;;;;;27.92;25.02;;;17.40;97.40;;;;;;4946741;28;20043;-81
2021/06/04 01:04:45;;;;;;;49.65;36.25;;;17.50;97.40;;;;;;4981101;28;20046;-81
2021/06/04 01:07:24;;;;;;;35.95;31.48;;;17.50;97.50;;;;;;4950598;28;20410;-82
2021/06/04 01:10:17;;;;;;;36.80;27.40;;;17.50;97.60;;;;;;4949956;28;20054;-81
2021/06/04 01:12:52;;;;;;;31.92;25.30;;;17.40;97.60;;;;;;4950455;28;20085;-81
2021/06/04 01:15:26;;;;;;;28.95;22.88;;;17.50;97.50;;;;;;4948722;28;20070;-81
2021/06/04 01:18:07;;;;;;;37.08;32.10;;;17.40;97.40;;;;;;4971830;28;20387;-82
2021/06/04 01:20:44;;;;;;;38.65;31.98;;;17.50;97.40;;;;;;4967866;28;20054;-81
2021/06/04 01:23:30;;;;;;;34.35;28.85;;;17.50;97.50;;;;;;4947723;28;20053;-81
2021/06/04 01:26:05;;;;;;;34.92;29.80;;;17.50;97.60;;;;;;4948627;28;20057;-81
2021/06/04 01:28:46;;;;;;;40.40;33.22;;;17.50;97.50;;;;;;4948097;28;20114;-81
2021/06/04 01:31:15;;;;;;;30.75;26.52;;;17.50;97.50;;;;;;4952251;28;20034;-81
2021/06/04 01:33:47;;;;;;;44.35;30.27;;;17.50;97.50;;;;;;4946903;28;20043;-81
2021/06/04 01:36:20;;;;;;;40.15;25.45;;;17.50;97.50;;;;;;4936102;28;20046;-81
2021/06/04 01:38:48;;;;;;;32.15;28.38;;;17.50;97.60;;;;;;4937029;28;20047;-81
2021/06/04 01:41:16;;;;;;;34.00;27.08;;;17.40;97.50;;;;;;4947719;28;20039;-81
2021/06/04 01:43:48;;;;;;;30.05;26.95;;;17.50;97.50;;;;;;4946192;28;20044;-81
2021/06/04 01:46:20;;;;;;;32.42;29.05;;;17.50;97.40;;;;;;4955099;28;20039;-81
2021/06/04 01:48:50;;;;;;;31.27;27.58;;;17.40;97.30;;;;;;4950953;28;20327;-81
2021/06/04 01:51:28;;;;;;;32.05;27.85;;;17.40;97.30;;;;;;4949071;28;20042;-81
2021/06/04 01:53:58;;;;;;;30.83;27.63;;;17.40;97.30;;;;;;4948148;28;20039;-81
2021/06/04 01:56:31;;;;;;;32.80;28.98;;;17.40;97.30;;;;;;4944815;28;20070;-81
2021/06/04 01:59:06;;;;;;;46.13;29.90;;;17.40;97.30;;;;;;4949482;28;20066;-81
2021/06/04 02:01:39;;;;;;;44.50;30.42;;;17.40;97.30;;;;;;4931977;29;20043;-81
2021/06/04 02:04:12;;;;;;;40.03;32.80;;;17.40;97.40;;;;;;4935816;28;20039;-81
2021/06/04 02:06:38;;;;;;;53.80;36.70;;;17.40;97.40;;;;;;4938831;28;20074;-81
2021/06/04 02:09:10;;;;;;;60.97;39.72;;;17.40;97.50;;;;;;4933599;28;20708;-81
2021/06/04 02:11:37;;;;;;;46.40;36.35;;;17.40;97.60;;;;;;4932385;28;20040;-81
2021/06/04 02:14:07;;;;;;;76.32;46.28;;;17.30;97.60;;;;;;4932997;28;20114;-81
2021/06/04 02:16:42;;;;;;;40.45;33.80;;;17.30;97.80;;;;;;4963719;28;20054;-81
2021/06/04 02:19:28;;;;;;;37.47;30.92;;;17.30;97.70;;;;;;4937353;28;20046;-82
2021/06/04 02:22:21;;;;;;;33.35;27.02;;;17.30;97.70;;;;;;4933253;28;20055;-81
2021/06/04 02:24:52;;;;;;;86.47;28.05;;;17.30;97.60;;;;;;4934184;28;20043;-81
2021/06/04 02:27:26;;;;;;;175.57;31.95;;;17.30;97.50;;;;;;4931736;28;20083;-81
2021/06/04 02:30:10;;;;;;;36.08;24.27;;;17.20;97.40;;;;;;4932700;28;20450;-81
2021/06/04 02:33:02;;;;;;;45.97;22.17;;;17.20;97.50;;;;;;4945132;28;20031;-81
2021/06/04 02:35:37;;;;;;;83.88;25.70;;;17.20;97.40;;;;;;4924943;29;20143;-81
2021/06/04 02:38:28;;;;;;;59.15;22.92;;;17.10;97.40;;;;;;4934291;28;20410;-81
2021/06/04 02:41:25;;;;;;;41.65;26.38;;;17.10;97.40;;;;;;4936744;28;20050;-81
2021/06/04 02:43:57;;;;;;;25.45;22.90;;;17.10;97.50;;;;;;4945594;28;20042;-81
2021/06/04 02:46:26;;;;;;;33.90;28.15;;;17.10;97.50;;;;;;4953618;28;20117;-81
2021/06/04 02:48:53;;;;;;;31.17;26.90;;;17.00;97.50;;;;;;4963814;28;20039;-81
2021/06/04 02:51:24;;;;;;;34.40;27.83;;;17.00;97.60;;;;;;4954327;28;20482;-79
2021/06/04 02:53:54;;;;;;;30.65;25.08;;;17.00;97.70;;;;;;4965449;28;20156;-79
2021/06/04 02:56:43;;;;;;;38.05;30.27;;;17.00;97.70;;;;;;4934329;28;20048;-79
2021/06/04 02:59:28;;;;;;;56.70;34.35;;;17.00;97.70;;;;;;4942365;28;20513;-79
2021/06/04 03:02:07;;;;;;;39.50;31.20;;;16.90;97.70;;;;;;4933814;28;20032;-79
2021/06/04 03:04:38;;;;;;;68.03;42.05;;;16.90;97.80;;;;;;4935848;28;20043;-79
2021/06/04 03:07:09;;;;;;;38.20;31.48;;;16.90;97.90;;;;;;4946907;28;20225;-79
2021/06/04 03:09:39;;;;;;;57.88;39.20;;;16.90;97.90;;;;;;4956773;28;20482;-80
2021/06/04 03:12:11;;;;;;;40.53;32.67;;;16.90;98.00;;;;;;4943120;28;20050;-80
2021/06/04 03:14:38;;;;;;;45.03;37.97;;;16.90;98.20;;;;;;4948570;28;20050;-80
2021/06/04 03:17:08;;;;;;;58.65;40.15;;;16.90;97.90;;;;;;4947197;28;20359;-80
2021/06/04 03:19:34;;;;;;;55.88;40.85;;;16.90;98.00;;;;;;4934659;28;20523;-80
2021/06/04 03:22:10;;;;;;;49.38;34.75;;;16.90;98.00;;;;;;4929023;28;20047;-80
2021/06/04 03:24:38;;;;;;;62.97;42.35;;;16.90;98.00;;;;;;4945159;28;20078;-80
2021/06/04 03:27:06;;;;;;;87.40;50.28;;;16.90;98.00;;;;;;4938857;28;20047;-80
2021/06/04 03:29:33;;;;;;;70.50;45.60;;;16.90;98.00;;;;;;4985172;28;20141;-80
2021/06/04 03:32:05;;;;;;;63.80;44.08;;;16.90;98.00;;;;;;4955121;28;20434;-80
2021/06/04 03:34:34;;;;;;;64.40;46.22;;;16.90;98.00;;;;;;4952617;28;20082;-81
2021/06/04 03:37:02;;;;;;;77.63;49.90;;;16.90;98.00;;;;;;4946606;28;20042;-80
2021/06/04 03:39:35;;;;;;;87.28;48.65;;;16.90;98.00;;;;;;4954445;28;20570;-80
2021/06/04 03:42:02;;;;;;;63.97;44.45;;;16.80;98.00;;;;;;4936958;28;20090;-80
2021/06/04 03:44:31;;;;;;;110.78;56.10;;;16.80;98.00;;;;;;4942790;28;20510;-80
2021/06/04 03:46:58;;;;;;;112.68;57.47;;;16.80;98.10;;;;;;4938762;28;20282;-80
2021/06/04 03:49:25;;;;;;;73.15;48.90;;;16.80;98.10;;;;;;4971002;28;20035;-80
2021/06/04 03:51:54;;;;;;;92.70;53.42;;;16.80;98.10;;;;;;4951620;28;20417;-80
2021/06/04 03:54:34;;;;;;;131.57;58.50;;;16.80;98.20;;;;;;4949552;28;20398;-80
2021/06/04 03:57:02;;;;;;;87.43;52.45;;;16.70;98.20;;;;;;4948809;28;20102;-81
2021/06/04 03:59:28;;;;;;;63.67;46.47;;;16.70;98.30;;;;;;4953536;28;20383;-80
2021/06/04 04:02:00;;;;;;;67.57;48.40;;;16.70;98.40;;;;;;4951134;28;20039;-80
2021/06/04 04:04:27;;;;;;;57.58;42.45;;;16.80;98.10;;;;;;4954744;28;20509;-80
2021/06/04 04:06:53;;;;;;;73.65;48.50;;;16.80;98.00;;;;;;4950594;28;20039;-80
2021/06/04 04:09:20;;;;;;;56.30;41.20;;;16.80;98.00;;;;;;4934951;28;20088;-80
2021/06/04 04:11:49;;;;;;;69.85;46.88;;;16.80;98.00;;;;;;4918614;28;20548;-80
2021/06/04 04:14:16;;;;;;;61.58;41.13;;;16.80;98.00;;;;;;4945724;28;20054;-80
2021/06/04 04:16:42;;;;;;;69.60;46.38;;;16.80;98.00;;;;;;4932442;28;20048;-80
2021/06/04 04:19:08;;;;;;;81.13;53.28;;;16.80;98.10;;;;;;4925075;28;20038;-81
2021/06/04 04:21:37;;;;;;;69.45;46.47;;;16.80;98.10;;;;;;4964754;28;20039;-80
2021/06/04 04:24:10;;;;;;;72.47;45.60;;;16.90;98.20;;;;;;4938654;28;20697;-80
2021/06/04 04:26:39;;;;;;;72.18;45.95;;;16.90;98.20;;;;;;4937767;28;20086;-80
2021/06/04 04:29:05;;;;;;;68.20;46.50;;;16.90;98.20;;;;;;4948462;28;20042;-80
2021/06/04 04:31:33;;;;;;;52.58;39.95;;;16.90;98.20;;;;;;4932272;29;20503;-80
2021/06/04 04:34:00;;;;;;;57.35;40.42;;;16.90;98.20;;;;;;4950470;28;20095;-80
2021/06/04 04:36:32;;;;;;;74.40;47.70;;;16.90;98.10;;;;;;4936888;29;20038;-80
2021/06/04 04:38:58;;;;;;;92.28;55.70;;;16.90;98.00;;;;;;4949344;29;20213;-80
2021/06/04 04:41:26;;;;;;;73.43;48.83;;;16.90;98.00;;;;;;4936407;28;20122;-80
2021/06/04 04:43:53;;;;;;;65.47;43.80;;;16.90;98.00;;;;;;4950497;28;20421;-80
2021/06/04 04:46:22;;;;;;;65.97;46.67;;;16.90;98.00;;;;;;4939978;28;20113;-81
2021/06/04 04:48:48;;;;;;;73.22;47.08;;;16.90;98.00;;;;;;4938313;28;20245;-81
2021/06/04 04:51:16;;;;;;;66.50;45.17;;;16.90;98.00;;;;;;4934524;28;22705;-80
2021/06/04 04:53:42;;;;;;;60.95;43.75;;;16.90;98.00;;;;;;4935306;28;20697;-81
2021/06/04 04:56:08;;;;;;;81.85;50.10;;;16.90;97.90;;;;;;4951396;28;20035;-81
2021/06/04 04:58:36;;;;;;;51.05;39.95;;;17.00;98.00;;;;;;4934785;28;20099;-81
2021/06/04 05:01:06;;;;;;;34.70;30.92;;;17.00;98.00;;;;;;4933904;28;20035;-81
2021/06/04 05:03:32;;;;;;;36.60;31.08;;;17.00;97.90;;;;;;4970332;28;20041;-81
2021/06/04 05:05:57;;;;;;;36.60;30.27;;;17.00;97.90;;;;;;4949271;28;20736;-81
2021/06/04 05:08:26;;;;;;;33.75;30.33;;;17.00;97.90;;;;;;4947312;28;20090;-81
2021/06/04 05:10:52;;;;;;;34.08;30.45;;;17.00;97.90;;;;;;4940445;28;20073;-81
2021/06/04 05:13:19;;;;;;;33.03;29.55;;;17.00;97.90;;;;;;4933808;28;20043;-81
2021/06/04 05:15:45;;;;;;;35.70;30.55;;;17.10;97.90;;;;;;4940522;28;20483;-81
2021/06/04 05:18:14;;;;;;;31.15;27.95;;;17.10;97.90;;;;;;4934426;28;20118;-81
2021/06/04 05:20:43;;;;;;;42.35;34.47;;;17.10;98.00;;;;;;4937552;28;20135;-81
2021/06/04 05:23:09;;;;;;;55.13;42.65;;;17.20;98.00;;;;;;4934176;28;20048;-81
2021/06/04 05:25:40;;;;;;;46.63;37.90;;;17.20;98.00;;;;;;4935667;28;20522;-81
2021/06/04 05:28:07;;;;;;;35.63;31.13;;;17.20;98.00;;;;;;4943137;28;20102;-82
2021/06/04 05:30:40;;;;;;;61.22;42.05;;;17.30;98.00;;;;;;4945959;28;20074;-82
2021/06/04 05:33:09;;;;;;;64.82;46.10;;;17.30;98.10;;;;;;4980658;28;20031;-81
2021/06/04 05:35:35;;;;;;;70.03;46.75;;;17.40;98.10;;;;;;4965523;28;20058;-81
2021/06/04 05:38:01;;;;;;;95.80;54.22;;;17.30;98.10;;;;;;4942831;28;20039;-82
2021/06/04 05:40:34;;;;;;;78.00;51.53;;;17.40;98.10;;;;;;4949206;28;20090;-82
2021/06/04 05:43:02;;;;;;;81.43;51.17;;;17.40;98.10;;;;;;4947993;28;20043;-82
2021/06/04 05:45:38;;;;;;;61.97;43.55;;;17.40;98.00;;;;;;4953002;28;20126;-82
2021/06/04 05:48:04;;;;;;;61.67;43.88;;;17.40;98.10;;;;;;4948128;28;20102;-80
2021/06/04 05:50:35;;;;;;;63.28;45.65;;;17.40;98.00;;;;;;4939214;29;20459;-82
2021/06/04 05:53:03;;;;;;;54.72;41.08;;;17.40;98.10;;;;;;4967108;28;20039;-82
2021/06/04 05:55:31;;;;;;;69.72;48.40;;;17.40;98.10;;;;;;4940233;28;20048;-82
2021/06/04 05:57:57;;;;;;;74.97;51.35;;;17.50;98.20;;;;;;4950241;28;20115;-81
2021/06/04 06:00:35;;;;;;;50.58;40.50;;;17.50;98.20;;;;;;4936579;29;20043;-82
2021/06/04 06:03:04;;;;;;;86.82;56.97;;;17.50;98.20;;;;;;4949537;29;20466;-82
2021/06/04 06:05:29;;;;;;;62.95;47.13;;;17.50;98.20;;;;;;4942787;28;20483;-80
2021/06/04 06:07:55;;;;;;;70.10;50.25;;;17.50;98.20;;;;;;4964835;28;20098;-81
2021/06/04 06:10:22;;;;;;;74.22;51.65;;;17.50;98.10;;;;;;4945124;28;20158;-81
2021/06/04 06:12:49;;;;;;;72.30;50.28;;;17.50;98.40;;;;;;4944707;28;20090;-82
2021/06/04 06:15:17;;;;;;;85.28;57.95;;;17.50;98.10;;;;;;4936873;28;20097;-79
2021/06/04 06:17:43;;;;;;;83.20;56.42;;;17.60;98.20;;;;;;4980485;28;20038;-81
2021/06/04 06:20:12;;;;;;;93.55;58.72;;;17.60;98.10;;;;;;4975952;28;20396;-79
2021/06/04 06:22:38;;;;;;;99.75;62.38;;;17.70;98.10;;;;;;4947792;28;20376;-81
2021/06/04 06:25:14;;;;;;;90.68;58.78;;;17.80;98.10;;;;;;4956109;28;20045;-80
2021/06/04 06:27:41;;;;;;;84.65;58.65;;;17.90;98.10;;;;;;4956294;28;20047;-81
2021/06/04 06:30:09;;;;;;;87.15;58.17;;;18.00;98.00;;;;;;4936564;28;20043;-81
2021/06/04 06:32:35;;;;;;;82.65;56.05;;;18.10;97.90;;;;;;4938314;29;20035;-81
2021/06/04 06:35:01;;;;;;;91.05;57.35;;;18.10;97.70;;;;;;4973752;28;20074;-81
2021/06/04 06:37:28;;;;;;;102.63;61.90;;;18.20;97.60;;;;;;4915210;29;20078;-81
2021/06/04 06:39:54;;;;;;;88.18;55.28;;;18.30;97.50;;;;;;4954623;28;20125;-81
2021/06/04 06:42:20;;;;;;;78.47;51.90;;;18.20;97.40;;;;;;4940945;28;20793;-82
2021/06/04 06:44:47;;;;;;;73.22;48.88;;;18.30;97.40;;;;;;4967633;28;20070;-80
2021/06/04 06:47:13;;;;;;;81.25;50.80;;;18.30;97.10;;;;;;4949272;28;20467;-82
2021/06/04 06:49:39;;;;;;;86.20;53.65;;;18.30;96.90;;;;;;4937640;28;20062;-82
2021/06/04 06:52:08;;;;;;;78.45;48.72;;;18.40;97.00;;;;;;4952288;28;20067;-82
2021/06/04 06:54:35;;;;;;;73.25;46.97;;;18.50;96.80;;;;;;4964417;28;20043;-83
2021/06/04 06:57:02;;;;;;;72.68;48.47;;;18.60;96.50;;;;;;4969740;28;20047;-83
2021/06/04 06:59:29;;;;;;;71.88;46.88;;;18.80;96.20;;;;;;4947855;28;20067;-82
2021/06/04 07:01:57;;;;;;;78.32;50.83;;;18.80;95.80;;;;;;4943850;28;20039;-83
2021/06/04 07:04:24;;;;;;;77.45;49.50;;;18.90;95.60;;;;;;4946508;28;20486;-82
2021/06/04 07:06:51;;;;;;;91.80;53.25;;;19.00;95.70;;;;;;4950732;29;20525;-83
2021/06/04 07:09:18;;;;;;;66.95;45.58;;;19.00;95.80;;;;;;4919242;29;20401;-83
2021/06/04 07:11:50;;;;;;;84.90;50.13;;;19.20;95.70;;;;;;4951656;29;20027;-81
2021/06/04 07:14:18;;;;;;;70.45;45.72;;;19.20;95.60;;;;;;4932535;28;20047;-81
2021/06/04 07:16:44;;;;;;;67.82;42.35;;;19.20;95.50;;;;;;4919682;29;20469;-83
2021/06/04 07:19:10;;;;;;;66.78;41.53;;;19.30;95.10;;;;;;4908408;29;20061;-82
2021/06/04 07:21:38;;;;;;;67.18;44.97;;;19.50;94.70;;;;;;4939875;28;20399;-82
2021/06/04 07:24:05;;;;;;;59.92;42.70;;;19.50;94.80;;;;;;4929303;29;20061;-81
2021/06/04 07:26:31;;;;;;;66.47;43.60;;;19.50;94.70;;;;;;4924814;29;20114;-81
2021/06/04 07:29:01;;;;;;;64.03;44.08;;;19.60;94.60;;;;;;4934682;28;20048;-81
2021/06/04 07:31:30;;;;;;;61.33;43.80;;;19.70;94.30;;;;;;4909589;29;20102;-82
2021/06/04 07:33:57;;;;;;;55.88;40.15;;;19.80;94.30;;;;;;4971350;28;20035;-81
2021/06/04 07:36:30;;;;;;;57.97;40.58;;;19.90;94.00;;;;;;4930446;28;20118;-80
2021/06/04 07:38:58;;;;;;;59.33;41.42;;;19.90;93.70;;;;;;4963563;28;20517;-81
2021/06/04 07:41:26;;;;;;;58.35;40.88;;;20.00;93.70;;;;;;4974871;28;20050;-81
2021/06/04 07:43:53;;;;;;;57.10;41.58;;;20.10;93.40;;;;;;4952725;28;20276;-82
2021/06/04 07:46:21;;;;;;;58.28;39.70;;;20.20;93.30;;;;;;4949436;29;20187;-82
2021/06/04 07:48:47;;;;;;;52.08;36.65;;;20.20;93.20;;;;;;4944206;28;20046;-82
2021/06/04 07:51:19;;;;;;;54.95;37.78;;;20.30;93.10;;;;;;4929245;28;20253;-83
2021/06/04 07:53:46;;;;;;;52.95;37.45;;;20.40;93.00;;;;;;4964913;28;20396;-82
2021/06/04 07:56:16;;;;;;;54.85;38.78;;;20.40;92.80;;;;;;4927227;29;20051;-82
2021/06/04 07:58:44;;;;;;;45.40;33.75;;;20.40;92.70;;;;;;4966700;28;20555;-82
2021/06/04 08:01:10;;;;;;;51.50;36.28;;;20.50;92.40;;;;;;4934637;28;20035;-82
2021/06/04 08:03:36;;;;;;;48.10;34.40;;;20.60;92.30;;;;;;4931099;29;20035;-82
2021/06/04 08:06:04;;;;;;;48.58;36.85;;;20.60;92.00;;;;;;4939826;28;20039;-82
2021/06/04 08:08:30;;;;;;;48.33;36.88;;;20.70;91.80;;;;;;4968214;28;20308;-82
2021/06/04 08:10:57;;;;;;;54.53;37.92;;;20.70;91.80;;;;;;4930533;29;20452;-82
2021/06/04 08:13:23;;;;;;;55.17;37.25;;;20.70;91.80;;;;;;4947635;28;20031;-82
2021/06/04 08:16:06;;;;;;;54.25;37.33;;;20.80;91.70;;;;;;4952904;29;20426;-82
2021/06/04 08:18:36;;;;;;;49.28;34.92;;;20.80;91.90;;;;;;4974665;28;20064;-81
2021/06/04 08:21:06;;;;;;;49.15;33.40;;;20.80;92.00;;;;;;4948072;28;20726;-81
2021/06/04 08:23:36;;;;;;;48.33;34.22;;;20.90;91.70;;;;;;4936050;28;20137;-79
2021/06/04 08:26:05;;;;;;;44.97;34.78;;;21.00;91.60;;;;;;4973594;28;20043;-82
2021/06/04 08:28:36;;;;;;;49.30;37.10;;;21.00;91.50;;;;;;4943227;28;20530;-82
2021/06/04 08:31:03;;;;;;;55.05;38.13;;;21.10;91.50;;;;;;4964910;28;20054;-82
2021/06/04 08:33:36;;;;;;;52.75;37.03;;;21.10;91.50;;;;;;4952433;28;20035;-82
2021/06/04 08:36:05;;;;;;;46.20;34.65;;;21.20;91.60;;;;;;4944437;28;20481;-81
2021/06/04 08:38:32;;;;;;;48.00;34.95;;;21.20;91.60;;;;;;4963199;28;20234;-80
2021/06/04 08:41:13;;;;;;;47.30;33.58;;;21.20;91.50;;;;;;4973650;28;20316;-78
2021/06/04 08:43:51;;;;;;;48.88;35.28;;;21.30;91.20;;;;;;4956477;28;20031;-78
2021/06/04 08:46:26;;;;;;;52.70;36.20;;;21.30;91.00;;;;;;4951440;28;20075;-80
2021/06/04 08:49:11;;;;;;;49.78;36.05;;;21.30;90.90;;;;;;4931432;28;20043;-80
2021/06/04 08:52:03;;;;;;;50.17;35.63;;;21.30;90.90;;;;;;4959982;28;20065;-80
2021/06/04 08:54:57;;;;;;;44.15;33.60;;;21.30;91.00;;;;;;4952613;28;20475;-81
2021/06/04 08:57:46;;;;;;;53.00;34.72;;;21.30;90.90;;;;;;4929160;28;20035;-79
2021/06/04 09:00:26;;;;;;;44.97;32.45;;;21.30;91.00;;;;;;4948703;28;20043;-81
2021/06/04 09:03:02;;;;;;;45.42;33.33;;;21.40;91.00;;;;;;4934742;28;20496;-81
2021/06/04 09:05:46;;;;;;;44.55;31.02;;;21.40;90.60;;;;;;4938011;28;20333;-81
2021/06/04 09:08:19;;;;;;;46.15;35.05;;;21.50;90.50;;;;;;4937568;28;20043;-80
2021/06/04 09:10:52;;;;;;;46.85;34.92;;;21.50;90.70;;;;;;4959503;28;20127;-81
2021/06/04 09:13:23;;;;;;;43.35;33.03;;;21.50;90.60;;;;;;4938693;28;20118;-80
2021/06/04 09:15:54;;;;;;;42.38;32.97;;;21.60;90.80;;;;;;4941041;28;20061;-79
2021/06/04 09:18:28;;;;;;;44.10;33.00;;;21.60;90.60;;;;;;4935295;28;20050;-81
2021/06/04 09:21:02;;;;;;;43.45;33.25;;;21.60;90.20;;;;;;4962861;28;20047;-81
2021/06/04 09:23:36;;;;;;;46.03;35.05;;;21.70;90.40;;;;;;4961703;28;20034;-80
2021/06/04 09:26:05;;;;;;;42.50;30.98;;;21.70;90.30;;;;;;4954796;28;20047;-80
2021/06/04 09:28:34;;;;;;;48.25;33.00;;;21.80;90.10;;;;;;4962974;28;20074;-81
2021/06/04 09:31:27;;;;;;;40.80;31.95;;;21.80;90.00;;;;;;4930338;28;20058;-81
2021/06/04 09:33:57;;;;;;;32.05;23.90;;;21.90;90.10;;;;;;4967122;28;20083;-79
2021/06/04 09:36:43;;;;;;;37.60;28.73;;;21.90;88.90;;;;;;4940397;28;20059;-81
2021/06/04 09:39:27;;;;;;;36.65;29.02;;;21.90;88.30;;;;;;4940367;28;20043;-80
2021/06/04 09:42:06;;;;;;;24.92;20.00;;;21.90;88.50;;;;;;4936308;28;20483;-80
2021/06/04 09:44:34;;;;;;;28.08;20.75;;;22.00;87.00;;;;;;4931482;28;20040;-80
2021/06/04 09:47:05;;;;;;;30.20;19.80;;;22.00;86.00;;;;;;4935123;28;20043;-81
2021/06/04 09:49:41;;;;;;;24.48;19.27;;;22.00;85.40;;;;;;4955918;28;20029;-81
2021/06/04 09:52:37;;;;;;;29.05;21.00;;;22.10;84.60;;;;;;4939653;28;20032;-80
2021/06/04 09:55:11;;;;;;;27.10;21.35;;;22.10;85.10;;;;;;4921750;29;20055;-80
2021/06/04 09:57:55;;;;;;;31.65;24.23;;;22.10;84.80;;;;;;4937097;28;20684;-80
2021/06/04 10:00:32;;;;;;;29.58;22.27;;;22.10;84.30;;;;;;4937278;28;20036;-81
2021/06/04 10:03:17;;;;;;;35.28;24.30;;;22.20;84.30;;;;;;4967761;28;20507;-81
2021/06/04 10:05:44;;;;;;;33.25;25.48;;;22.20;84.80;;;;;;4973051;28;20253;-81
2021/06/04 10:08:29;;;;;;;28.50;23.27;;;22.20;84.70;;;;;;4939792;29;20495;-80
2021/06/04 10:11:13;;;;;;;36.45;27.88;;;22.20;84.90;;;;;;4956733;28;20046;-81
2021/06/04 10:14:15;;;;;;;30.65;25.10;;;22.30;85.00;;;;;;4967581;28;20806;-81
2021/06/04 10:19:24;;;;;;;31.00;24.23;;;22.40;84.50;;;;;;4944024;28;20503;-80
2021/06/04 10:22:07;;;;;;;29.38;22.35;;;22.40;83.70;;;;;;4935604;28;20072;-81
2021/06/04 10:24:37;;;;;;;33.70;25.35;;;22.50;83.20;;;;;;4936954;28;20193;-81
2021/06/04 10:27:07;;;;;;;31.98;23.83;;;22.50;83.80;;;;;;4945653;28;20078;-81
2021/06/04 10:29:33;;;;;;;31.50;23.67;;;22.60;82.90;;;;;;4980213;28;20042;-81
2021/06/04 10:32:18;;;;;;;30.67;23.73;;;22.70;83.50;;;;;;4960039;28;20114;-82
2021/06/04 10:35:03;;;;;;;32.13;24.77;;;22.70;83.70;;;;;;4953037;28;20224;-81
2021/06/04 10:37:32;;;;;;;33.47;26.77;;;22.80;83.70;;;;;;4942670;28;20135;-82
2021/06/04 10:40:14;;;;;;;33.05;24.83;;;22.90;83.00;;;;;;4955560;28;20044;-81
2021/06/04 10:43:00;;;;;;;27.08;22.73;;;22.90;83.60;;;;;;4949284;28;20031;-81
2021/06/04 10:45:31;;;;;;;28.80;23.17;;;23.00;83.10;;;;;;4982985;28;20046;-81
2021/06/04 10:48:09;;;;;;;32.75;23.67;;;23.00;82.40;;;;;;4958601;28;20050;-81
2021/06/04 10:50:54;;;;;;;31.00;23.13;;;23.10;82.00;;;;;;4936339;28;20443;-80
2021/06/04 10:53:32;;;;;;;34.20;23.55;;;23.10;81.50;;;;;;4936515;28;20042;-81
2021/06/04 10:56:11;;;;;;;32.80;24.52;;;23.10;81.20;;;;;;4950851;28;20043;-80
2021/06/04 10:58:46;;;;;;;31.42;24.02;;;23.10;81.20;;;;;;4943342;28;20032;-81
2021/06/04 11:01:16;;;;;;;28.73;23.17;;;23.20;80.90;;;;;;4961848;28;20023;-80
2021/06/04 11:04:05;;;;;;;32.78;21.88;;;23.20;81.10;;;;;;4940810;28;20047;-81
2021/06/04 11:06:48;;;;;;;23.98;19.92;;;23.20;80.90;;;;;;4931222;28;20044;-81
2021/06/04 11:09:30;;;;;;;28.13;21.70;;;23.30;80.50;;;;;;4936305;28;20124;-81
2021/06/04 11:12:20;;;;;;;29.40;21.50;;;23.30;80.00;;;;;;4936940;28;20411;-81
2021/06/04 11:15:21;;;;;;;29.30;21.77;;;23.30;80.00;;;;;;4931956;28;20028;-81
2021/06/04 11:18:05;;;;;;;26.73;20.17;;;23.40;80.70;;;;;;4910491;28;20423;-81
2021/06/04 11:20:38;;;;;;;28.40;22.63;;;23.50;80.10;;;;;;4963000;28;20114;-81
2021/06/04 11:23:17;;;;;;;27.83;20.45;;;23.50;79.30;;;;;;4939083;28;20047;-81
2021/06/04 11:25:42;;;;;;;30.80;25.45;;;23.60;78.50;;;;;;4936492;28;20031;-82
2021/06/04 11:28:40;;;;;;;32.45;23.05;;;23.60;78.00;;;;;;4987454;28;20045;-81
2021/06/04 11:31:15;;;;;;;27.13;19.90;;;23.70;78.90;;;;;;4952690;28;20518;-81
2021/06/04 11:33:46;;;;;;;25.50;19.25;;;23.80;78.70;;;;;;4949266;28;20482;-82
2021/06/04 11:36:19;;;;;;;28.33;19.17;;;23.80;78.30;;;;;;4968776;28;20053;-81
2021/06/04 11:38:56;;;;;;;28.02;20.90;;;23.90;77.90;;;;;;4959142;28;20035;-81
2021/06/04 11:41:53;;;;;;;23.88;20.58;;;23.90;78.00;;;;;;4954117;28;20047;-82
2021/06/04 11:44:24;;;;;;;29.25;20.10;;;24.00;77.10;;;;;;4952042;28;20058;-81
2021/06/04 11:47:12;;;;;;;19.67;16.42;;;24.00;76.60;;;;;;4941140;28;20032;-81
2021/06/04 11:49:53;;;;;;;13.77;11.82;;;24.10;76.30;;;;;;4968206;28;20068;-81
2021/06/04 11:52:31;;;;;;;13.40;10.85;;;24.00;74.00;;;;;;4935368;28;20462;-80
2021/06/04 11:55:31;;;;;;;15.15;10.27;;;24.10;73.70;;;;;;4937059;28;20066;-81
2021/06/04 11:58:28;;;;;;;15.10;10.88;;;24.00;73.90;;;;;;4932695;28;20046;-82
2021/06/04 12:01:13;;;;;;;9.43;6.80;;;24.10;71.40;;;;;;4964575;28;20052;-82
2021/06/04 12:03:44;;;;;;;9.60;6.82;;;24.10;71.10;;;;;;4954224;28;20031;-82
2021/06/04 12:06:28;;;;;;;10.68;6.38;;;24.10;69.60;;;;;;4951648;28;20035;-81
2021/06/04 12:08:58;;;;;;;8.70;6.45;;;24.10;67.70;;;;;;4950729;29;20157;-81
2021/06/04 12:11:30;;;;;;;11.90;6.93;;;24.10;67.50;;;;;;4934946;29;20055;-81
2021/06/04 12:13:58;;;;;;;7.68;6.65;;;24.20;67.10;;;;;;4947986;28;20035;-81
2021/06/04 12:16:28;;;;;;;9.57;7.10;;;24.20;67.40;;;;;;4948372;28;20036;-81
2021/06/04 12:19:13;;;;;;;11.75;6.90;;;24.30;66.50;;;;;;4947287;28;20039;-81
2021/06/04 12:21:39;;;;;;;16.30;9.65;;;24.30;66.70;;;;;;4953960;28;20550;-81
2021/06/04 12:24:08;;;;;;;13.05;9.35;;;24.40;66.30;;;;;;4972910;28;20064;-82
2021/06/04 12:27:00;;;;;;;18.20;11.70;;;24.40;66.20;;;;;;4977677;28;20208;-81
2021/06/04 12:29:26;;;;;;;16.50;14.07;;;24.40;66.70;;;;;;4935130;28;20052;-81
2021/06/04 12:32:05;;;;;;;14.70;10.65;;;24.50;67.10;;;;;;4961878;28;20039;-82
2021/06/04 12:34:55;;;;;;;16.33;11.15;;;24.60;66.50;;;;;;4937886;28;20034;-83
2021/06/04 12:37:30;;;;;;;18.40;10.15;;;24.60;68.30;;;;;;4932047;28;20055;-82
2021/06/04 12:40:07;;;;;;;23.83;12.02;;;24.70;69.40;;;;;;4930346;28;20046;-82
2021/06/04 12:42:43;;;;;;;20.33;11.57;;;24.70;69.40;;;;;;4959788;28;20034;-83
2021/06/04 12:45:15;;;;;;;17.67;10.90;;;24.80;68.70;;;;;;4929977;28;20494;-81
2021/06/04 12:47:50;;;;;;;14.40;9.63;;;24.80;67.30;;;;;;4974999;28;20039;-82
2021/06/04 12:50:28;;;;;;;14.18;9.98;;;24.80;66.20;;;;;;4946660;29;20509;-82
2021/06/04 12:53:18;;;;;;;13.10;10.52;;;24.80;67.40;;;;;;4961384;28;20279;-82
2021/06/04 12:55:48;;;;;;;11.93;9.30;;;24.90;66.80;;;;;;4941737;29;20042;-82
2021/06/04 12:58:25;;;;;;;15.10;10.05;;;24.90;67.30;;;;;;4935275;29;20376;-82